sensor_id;sensor_type;location;lat;lon;timestamp;P1;durP1;ratioP1;P2;durP2;ratioP2
60239;SDS011;46102;39.012;-7.064;2024-02-21T00:01:21;1.67;;;1.50;;
60239;SDS011;46102;39.012;-7.064;2024-02-21T00:03:22;2.08;;;1.50;;
60239;SDS011;46102;39.012;-7.064;2024-02-21T00:05:23;1.65;;;1.55;;
60239;SDS011;46102;39.012;-7.064;2024-02-21T00:07:24;1.42;;;1.30;;
60239;SDS011;46102;39.012;-7.064;2024-02-21T00:09:25;1.48;;;1.38;;
60239;SDS011;46102;39.012;-7.064;2024-02-21T00:11:25;1.63;;;1.52;;
60239;SDS011;46102;39.012;-7.064;2024-02-21T00:13:26;1.40;;;1.30;;
60239;SDS011;46102;39.012;-7.064;2024-02-21T00:15:27;3.05;;;1.77;;
60239;SDS011;46102;39.012;-7.064;2024-02-21T00:17:28;4.35;;;1.70;;
60239;SDS011;46102;39.012;-7.064;2024-02-21T00:19:28;1.70;;;1.42;;
60239;SDS011;46102;39.012;-7.064;2024-02-21T00:21:29;2.00;;;1.58;;
60239;SDS011;46102;39.012;-7.064;2024-02-21T00:23:30;1.58;;;1.48;;
60239;SDS011;46102;39.012;-7.064;2024-02-21T00:25:31;1.45;;;1.30;;
60239;SDS011;46102;39.012;-7.064;2024-02-21T00:27:32;2.20;;;1.65;;
60239;SDS011;46102;39.012;-7.064;2024-02-21T00:29:32;2.42;;;1.75;;
60239;SDS011;46102;39.012;-7.064;2024-02-21T00:31:34;1.60;;;1.50;;
60239;SDS011;46102;39.012;-7.064;2024-02-21T00:33:35;1.45;;;1.30;;
60239;SDS011;46102;39.012;-7.064;2024-02-21T00:35:36;1.27;;;1.17;;
60239;SDS011;46102;39.012;-7.064;2024-02-21T00:37:36;2.00;;;1.30;;
60239;SDS011;46102;39.012;-7.064;2024-02-21T00:39:37;3.85;;;1.40;;
60239;SDS011;46102;39.012;-7.064;2024-02-21T00:41:38;1.67;;;1.58;;
60239;SDS011;46102;39.012;-7.064;2024-02-21T00:43:39;2.08;;;1.58;;
60239;SDS011;46102;39.012;-7.064;2024-02-21T00:45:39;1.80;;;1.70;;
60239;SDS011;46102;39.012;-7.064;2024-02-21T00:47:40;1.48;;;1.38;;
60239;SDS011;46102;39.012;-7.064;2024-02-21T00:49:41;1.45;;;1.35;;
60239;SDS011;46102;39.012;-7.064;2024-02-21T00:51:42;1.67;;;1.55;;
60239;SDS011;46102;39.012;-7.064;2024-02-21T00:53:42;1.90;;;1.20;;
60239;SDS011;46102;39.012;-7.064;2024-02-21T00:55:43;1.38;;;1.27;;
60239;SDS011;46102;39.012;-7.064;2024-02-21T00:57:44;1.80;;;1.38;;
60239;SDS011;46102;39.012;-7.064;2024-02-21T00:59:45;1.88;;;1.63;;
60239;SDS011;46102;39.012;-7.064;2024-02-21T01:01:45;2.35;;;1.70;;
60239;SDS011;46102;39.012;-7.064;2024-02-21T01:03:46;3.05;;;1.67;;
60239;SDS011;46102;39.012;-7.064;2024-02-21T01:05:47;1.77;;;1.58;;
60239;SDS011;46102;39.012;-7.064;2024-02-21T01:07:48;4.38;;;1.58;;
60239;SDS011;46102;39.012;-7.064;2024-02-21T01:09:48;1.83;;;1.63;;
60239;SDS011;46102;39.012;-7.064;2024-02-21T01:11:51;2.42;;;1.70;;
60239;SDS011;46102;39.012;-7.064;2024-02-21T01:13:52;2.38;;;2.00;;
60239;SDS011;46102;39.012;-7.064;2024-02-21T01:15:52;3.47;;;1.98;;
60239;SDS011;46102;39.012;-7.064;2024-02-21T01:17:54;1.67;;;1.58;;
60239;SDS011;46102;39.012;-7.064;2024-02-21T01:19:55;1.80;;;1.60;;
60239;SDS011;46102;39.012;-7.064;2024-02-21T01:21:55;1.73;;;1.63;;
60239;SDS011;46102;39.012;-7.064;2024-02-21T01:23:56;2.88;;;1.85;;
60239;SDS011;46102;39.012;-7.064;2024-02-21T01:25:57;3.13;;;2.10;;
60239;SDS011;46102;39.012;-7.064;2024-02-21T01:27:58;2.40;;;1.80;;
60239;SDS011;46102;39.012;-7.064;2024-02-21T01:29:58;3.30;;;2.83;;
60239;SDS011;46102;39.012;-7.064;2024-02-21T01:31:59;2.55;;;1.63;;
60239;SDS011;46102;39.012;-7.064;2024-02-21T01:34:00;4.07;;;1.90;;
60239;SDS011;46102;39.012;-7.064;2024-02-21T01:36:04;3.05;;;2.25;;
60239;SDS011;46102;39.012;-7.064;2024-02-21T01:38:07;2.58;;;1.98;;
60239;SDS011;46102;39.012;-7.064;2024-02-21T01:40:07;2.17;;;1.98;;
60239;SDS011;46102;39.012;-7.064;2024-02-21T01:42:09;2.30;;;1.83;;
60239;SDS011;46102;39.012;-7.064;2024-02-21T01:44:09;5.88;;;2.28;;
60239;SDS011;46102;39.012;-7.064;2024-02-21T01:46:10;5.25;;;2.08;;
60239;SDS011;46102;39.012;-7.064;2024-02-21T01:48:12;3.15;;;1.65;;
60239;SDS011;46102;39.012;-7.064;2024-02-21T01:50:13;2.08;;;1.70;;
60239;SDS011;46102;39.012;-7.064;2024-02-21T01:52:15;3.70;;;2.33;;
60239;SDS011;46102;39.012;-7.064;2024-02-21T01:54:17;3.17;;;2.38;;
60239;SDS011;46102;39.012;-7.064;2024-02-21T01:56:19;2.33;;;2.13;;
60239;SDS011;46102;39.012;-7.064;2024-02-21T01:58:20;2.60;;;2.38;;
60239;SDS011;46102;39.012;-7.064;2024-02-21T02:00:22;3.45;;;2.75;;
60239;SDS011;46102;39.012;-7.064;2024-02-21T02:02:24;3.78;;;2.63;;
60239;SDS011;46102;39.012;-7.064;2024-02-21T02:04:24;3.10;;;2.40;;
60239;SDS011;46102;39.012;-7.064;2024-02-21T02:06:27;4.00;;;3.05;;
60239;SDS011;46102;39.012;-7.064;2024-02-21T02:08:27;5.57;;;3.00;;
60239;SDS011;46102;39.012;-7.064;2024-02-21T02:10:28;5.43;;;2.80;;
60239;SDS011;46102;39.012;-7.064;2024-02-21T02:12:29;5.45;;;3.08;;
60239;SDS011;46102;39.012;-7.064;2024-02-21T02:14:30;2.88;;;2.55;;
60239;SDS011;46102;39.012;-7.064;2024-02-21T02:16:31;6.28;;;2.72;;
60239;SDS011;46102;39.012;-7.064;2024-02-21T02:18:31;4.18;;;2.75;;
60239;SDS011;46102;39.012;-7.064;2024-02-21T02:20:32;2.72;;;2.47;;
60239;SDS011;46102;39.012;-7.064;2024-02-21T02:22:33;4.47;;;2.97;;
60239;SDS011;46102;39.012;-7.064;2024-02-21T02:24:38;3.85;;;3.00;;
60239;SDS011;46102;39.012;-7.064;2024-02-21T02:26:39;5.70;;;3.25;;
60239;SDS011;46102;39.012;-7.064;2024-02-21T02:28:40;8.07;;;3.22;;
60239;SDS011;46102;39.012;-7.064;2024-02-21T02:30:41;7.82;;;3.55;;
60239;SDS011;46102;39.012;-7.064;2024-02-21T02:32:45;12.07;;;4.38;;
60239;SDS011;46102;39.012;-7.064;2024-02-21T02:34:46;17.80;;;5.90;;
60239;SDS011;46102;39.012;-7.064;2024-02-21T02:36:47;20.67;;;6.47;;
60239;SDS011;46102;39.012;-7.064;2024-02-21T02:38:49;30.58;;;8.73;;
60239;SDS011;46102;39.012;-7.064;2024-02-21T02:40:50;24.52;;;8.98;;
60239;SDS011;46102;39.012;-7.064;2024-02-21T02:42:51;25.48;;;8.63;;
60239;SDS011;46102;39.012;-7.064;2024-02-21T02:44:51;28.08;;;7.70;;
60239;SDS011;46102;39.012;-7.064;2024-02-21T02:46:52;30.40;;;9.35;;
60239;SDS011;46102;39.012;-7.064;2024-02-21T02:48:53;22.15;;;8.02;;
60239;SDS011;46102;39.012;-7.064;2024-02-21T02:50:54;25.40;;;9.13;;
60239;SDS011;46102;39.012;-7.064;2024-02-21T02:52:54;20.23;;;8.52;;
60239;SDS011;46102;39.012;-7.064;2024-02-21T02:54:55;20.30;;;7.68;;
60239;SDS011;46102;39.012;-7.064;2024-02-21T02:56:56;13.60;;;7.53;;
60239;SDS011;46102;39.012;-7.064;2024-02-21T02:58:57;22.52;;;8.52;;
60239;SDS011;46102;39.012;-7.064;2024-02-21T03:00:58;21.27;;;7.05;;
60239;SDS011;46102;39.012;-7.064;2024-02-21T03:02:58;22.05;;;6.88;;
60239;SDS011;46102;39.012;-7.064;2024-02-21T03:04:59;14.13;;;6.15;;
60239;SDS011;46102;39.012;-7.064;2024-02-21T03:07:00;12.02;;;5.95;;
60239;SDS011;46102;39.012;-7.064;2024-02-21T03:09:01;14.75;;;5.68;;
60239;SDS011;46102;39.012;-7.064;2024-02-21T03:11:01;14.45;;;6.38;;
60239;SDS011;46102;39.012;-7.064;2024-02-21T03:13:02;11.82;;;5.05;;
60239;SDS011;46102;39.012;-7.064;2024-02-21T03:15:04;18.10;;;6.82;;
60239;SDS011;46102;39.012;-7.064;2024-02-21T03:17:05;18.77;;;6.40;;
60239;SDS011;46102;39.012;-7.064;2024-02-21T03:19:06;15.77;;;6.25;;
60239;SDS011;46102;39.012;-7.064;2024-02-21T03:21:07;14.68;;;7.03;;
60239;SDS011;46102;39.012;-7.064;2024-02-21T03:23:08;14.80;;;7.22;;
60239;SDS011;46102;39.012;-7.064;2024-02-21T03:25:09;16.95;;;7.53;;
60239;SDS011;46102;39.012;-7.064;2024-02-21T03:27:11;17.90;;;8.23;;
60239;SDS011;46102;39.012;-7.064;2024-02-21T03:29:11;16.42;;;7.57;;
60239;SDS011;46102;39.012;-7.064;2024-02-21T03:31:12;17.10;;;7.18;;
60239;SDS011;46102;39.012;-7.064;2024-02-21T03:33:14;13.80;;;7.30;;
60239;SDS011;46102;39.012;-7.064;2024-02-21T03:35:14;14.77;;;6.63;;
60239;SDS011;46102;39.012;-7.064;2024-02-21T03:37:15;17.42;;;7.00;;
60239;SDS011;46102;39.012;-7.064;2024-02-21T03:39:16;14.82;;;6.43;;
60239;SDS011;46102;39.012;-7.064;2024-02-21T03:41:17;14.35;;;7.20;;
60239;SDS011;46102;39.012;-7.064;2024-02-21T03:43:17;14.88;;;8.02;;
60239;SDS011;46102;39.012;-7.064;2024-02-21T03:45:18;21.88;;;8.77;;
60239;SDS011;46102;39.012;-7.064;2024-02-21T03:47:19;19.10;;;8.75;;
60239;SDS011;46102;39.012;-7.064;2024-02-21T03:49:20;15.02;;;6.95;;
60239;SDS011;46102;39.012;-7.064;2024-02-21T03:51:21;12.15;;;6.22;;
60239;SDS011;46102;39.012;-7.064;2024-02-21T03:53:22;8.85;;;5.60;;
60239;SDS011;46102;39.012;-7.064;2024-02-21T03:55:23;7.95;;;4.90;;
60239;SDS011;46102;39.012;-7.064;2024-02-21T03:57:24;8.25;;;4.85;;
60239;SDS011;46102;39.012;-7.064;2024-02-21T03:59:24;10.32;;;4.38;;
60239;SDS011;46102;39.012;-7.064;2024-02-21T04:01:25;9.32;;;4.13;;
60239;SDS011;46102;39.012;-7.064;2024-02-21T04:03:26;7.43;;;4.20;;
60239;SDS011;46102;39.012;-7.064;2024-02-21T04:05:27;5.47;;;3.80;;
60239;SDS011;46102;39.012;-7.064;2024-02-21T04:07:27;5.18;;;3.17;;
60239;SDS011;46102;39.012;-7.064;2024-02-21T04:09:28;5.68;;;3.15;;
60239;SDS011;46102;39.012;-7.064;2024-02-21T04:11:29;5.82;;;3.95;;
60239;SDS011;46102;39.012;-7.064;2024-02-21T04:13:30;6.53;;;3.67;;
60239;SDS011;46102;39.012;-7.064;2024-02-21T04:15:30;9.52;;;4.50;;
60239;SDS011;46102;39.012;-7.064;2024-02-21T04:17:31;7.55;;;4.20;;
60239;SDS011;46102;39.012;-7.064;2024-02-21T04:19:32;5.75;;;3.78;;
60239;SDS011;46102;39.012;-7.064;2024-02-21T04:21:34;5.72;;;4.43;;
60239;SDS011;46102;39.012;-7.064;2024-02-21T04:23:35;5.57;;;3.90;;
60239;SDS011;46102;39.012;-7.064;2024-02-21T04:25:36;6.15;;;4.43;;
60239;SDS011;46102;39.012;-7.064;2024-02-21T04:27:37;6.72;;;4.60;;
60239;SDS011;46102;39.012;-7.064;2024-02-21T04:29:41;6.90;;;4.93;;
60239;SDS011;46102;39.012;-7.064;2024-02-21T04:31:41;6.32;;;5.10;;
60239;SDS011;46102;39.012;-7.064;2024-02-21T04:33:42;6.30;;;4.95;;
60239;SDS011;46102;39.012;-7.064;2024-02-21T04:35:43;8.02;;;4.72;;
60239;SDS011;46102;39.012;-7.064;2024-02-21T04:37:44;4.63;;;4.15;;
60239;SDS011;46102;39.012;-7.064;2024-02-21T04:39:44;5.13;;;4.63;;
60239;SDS011;46102;39.012;-7.064;2024-02-21T04:41:45;4.93;;;4.32;;
60239;SDS011;46102;39.012;-7.064;2024-02-21T04:43:46;4.75;;;4.25;;
60239;SDS011;46102;39.012;-7.064;2024-02-21T04:45:50;5.90;;;4.38;;
60239;SDS011;46102;39.012;-7.064;2024-02-21T04:47:51;4.55;;;4.07;;
60239;SDS011;46102;39.012;-7.064;2024-02-21T04:49:52;5.13;;;4.25;;
60239;SDS011;46102;39.012;-7.064;2024-02-21T04:51:53;6.68;;;4.47;;
60239;SDS011;46102;39.012;-7.064;2024-02-21T04:53:53;9.27;;;4.68;;
60239;SDS011;46102;39.012;-7.064;2024-02-21T04:55:54;4.63;;;4.00;;
60239;SDS011;46102;39.012;-7.064;2024-02-21T04:57:55;7.18;;;4.38;;
60239;SDS011;46102;39.012;-7.064;2024-02-21T04:59:56;7.25;;;4.55;;
60239;SDS011;46102;39.012;-7.064;2024-02-21T05:01:56;4.80;;;4.38;;
60239;SDS011;46102;39.012;-7.064;2024-02-21T05:03:57;5.65;;;4.22;;
60239;SDS011;46102;39.012;-7.064;2024-02-21T05:05:58;4.63;;;4.07;;
60239;SDS011;46102;39.012;-7.064;2024-02-21T05:07:59;4.95;;;4.45;;
60239;SDS011;46102;39.012;-7.064;2024-02-21T05:10:00;6.28;;;5.13;;
60239;SDS011;46102;39.012;-7.064;2024-02-21T05:12:01;7.85;;;5.18;;
60239;SDS011;46102;39.012;-7.064;2024-02-21T05:14:02;6.35;;;4.90;;
60239;SDS011;46102;39.012;-7.064;2024-02-21T05:16:04;4.60;;;3.65;;
60239;SDS011;46102;39.012;-7.064;2024-02-21T05:18:05;6.25;;;4.10;;
60239;SDS011;46102;39.012;-7.064;2024-02-21T05:20:06;4.43;;;3.95;;
60239;SDS011;46102;39.012;-7.064;2024-02-21T05:22:07;3.70;;;3.28;;
60239;SDS011;46102;39.012;-7.064;2024-02-21T05:24:08;2.90;;;2.60;;
60239;SDS011;46102;39.012;-7.064;2024-02-21T05:26:09;3.45;;;3.15;;
60239;SDS011;46102;39.012;-7.064;2024-02-21T05:28:09;3.40;;;3.03;;
60239;SDS011;46102;39.012;-7.064;2024-02-21T05:30:11;4.43;;;2.85;;
60239;SDS011;46102;39.012;-7.064;2024-02-21T05:32:12;2.70;;;2.50;;
60239;SDS011;46102;39.012;-7.064;2024-02-21T05:34:13;2.30;;;2.10;;
60239;SDS011;46102;39.012;-7.064;2024-02-21T05:36:14;3.80;;;2.38;;
60239;SDS011;46102;39.012;-7.064;2024-02-21T05:38:14;3.78;;;3.03;;
60239;SDS011;46102;39.012;-7.064;2024-02-21T05:40:15;4.50;;;3.20;;
60239;SDS011;46102;39.012;-7.064;2024-02-21T05:42:16;4.82;;;4.30;;
60239;SDS011;46102;39.012;-7.064;2024-02-21T05:44:18;4.25;;;3.83;;
60239;SDS011;46102;39.012;-7.064;2024-02-21T05:46:19;4.20;;;3.80;;
60239;SDS011;46102;39.012;-7.064;2024-02-21T05:48:20;4.30;;;3.90;;
60239;SDS011;46102;39.012;-7.064;2024-02-21T05:50:22;4.82;;;4.10;;
60239;SDS011;46102;39.012;-7.064;2024-02-21T05:52:23;6.85;;;4.45;;
60239;SDS011;46102;39.012;-7.064;2024-02-21T05:54:24;5.07;;;3.92;;
60239;SDS011;46102;39.012;-7.064;2024-02-21T05:56:25;9.18;;;7.10;;
60239;SDS011;46102;39.012;-7.064;2024-02-21T05:58:26;6.32;;;5.72;;
60239;SDS011;46102;39.012;-7.064;2024-02-21T06:00:26;6.85;;;5.65;;
60239;SDS011;46102;39.012;-7.064;2024-02-21T06:02:27;10.93;;;5.60;;
60239;SDS011;46102;39.012;-7.064;2024-02-21T06:04:28;8.75;;;5.28;;
60239;SDS011;46102;39.012;-7.064;2024-02-21T06:06:28;7.65;;;5.25;;
60239;SDS011;46102;39.012;-7.064;2024-02-21T06:08:29;7.68;;;5.90;;
60239;SDS011;46102;39.012;-7.064;2024-02-21T06:10:30;7.57;;;6.07;;
60239;SDS011;46102;39.012;-7.064;2024-02-21T06:12:31;8.45;;;6.15;;
60239;SDS011;46102;39.012;-7.064;2024-02-21T06:14:31;11.30;;;6.65;;
60239;SDS011;46102;39.012;-7.064;2024-02-21T06:16:32;8.07;;;6.35;;
60239;SDS011;46102;39.012;-7.064;2024-02-21T06:18:34;8.05;;;6.07;;
60239;SDS011;46102;39.012;-7.064;2024-02-21T06:20:36;7.10;;;5.68;;
60239;SDS011;46102;39.012;-7.064;2024-02-21T06:22:39;6.90;;;5.07;;
60239;SDS011;46102;39.012;-7.064;2024-02-21T06:24:40;5.70;;;4.95;;
60239;SDS011;46102;39.012;-7.064;2024-02-21T06:26:40;8.90;;;4.55;;
60239;SDS011;46102;39.012;-7.064;2024-02-21T06:28:41;5.35;;;3.42;;
60239;SDS011;46102;39.012;-7.064;2024-02-21T06:30:43;4.68;;;3.25;;
60239;SDS011;46102;39.012;-7.064;2024-02-21T06:32:43;3.88;;;3.05;;
60239;SDS011;46102;39.012;-7.064;2024-02-21T06:34:44;4.35;;;2.50;;
60239;SDS011;46102;39.012;-7.064;2024-02-21T06:36:45;2.83;;;2.33;;
60239;SDS011;46102;39.012;-7.064;2024-02-21T06:38:46;4.95;;;3.10;;
60239;SDS011;46102;39.012;-7.064;2024-02-21T06:40:47;5.20;;;4.63;;
60239;SDS011;46102;39.012;-7.064;2024-02-21T06:42:50;7.35;;;5.05;;
60239;SDS011;46102;39.012;-7.064;2024-02-21T06:44:51;6.57;;;5.05;;
60239;SDS011;46102;39.012;-7.064;2024-02-21T06:46:52;4.45;;;4.07;;
60239;SDS011;46102;39.012;-7.064;2024-02-21T06:48:53;4.22;;;3.83;;
60239;SDS011;46102;39.012;-7.064;2024-02-21T06:50:53;6.20;;;5.60;;
60239;SDS011;46102;39.012;-7.064;2024-02-21T06:52:54;22.25;;;19.02;;
60239;SDS011;46102;39.012;-7.064;2024-02-21T06:54:55;106.43;;;49.63;;
60239;SDS011;46102;39.012;-7.064;2024-02-21T06:56:55;139.02;;;52.05;;
60239;SDS011;46102;39.012;-7.064;2024-02-21T06:58:56;109.88;;;38.30;;
60239;SDS011;46102;39.012;-7.064;2024-02-21T07:00:58;48.63;;;21.00;;
60239;SDS011;46102;39.012;-7.064;2024-02-21T07:02:58;51.60;;;21.73;;
60239;SDS011;46102;39.012;-7.064;2024-02-21T07:04:59;52.25;;;18.73;;
60239;SDS011;46102;39.012;-7.064;2024-02-21T07:07:00;21.70;;;10.27;;
60239;SDS011;46102;39.012;-7.064;2024-02-21T07:09:01;10.05;;;6.07;;
60239;SDS011;46102;39.012;-7.064;2024-02-21T07:11:02;6.65;;;5.38;;
60239;SDS011;46102;39.012;-7.064;2024-02-21T07:13:02;7.30;;;5.13;;
60239;SDS011;46102;39.012;-7.064;2024-02-21T07:15:04;11.88;;;6.65;;
60239;SDS011;46102;39.012;-7.064;2024-02-21T07:17:05;18.75;;;10.30;;
60239;SDS011;46102;39.012;-7.064;2024-02-21T07:19:06;21.38;;;12.30;;
60239;SDS011;46102;39.012;-7.064;2024-02-21T07:21:07;22.33;;;12.20;;
60239;SDS011;46102;39.012;-7.064;2024-02-21T07:23:08;18.80;;;11.73;;
60239;SDS011;46102;39.012;-7.064;2024-02-21T07:25:09;20.50;;;11.73;;
60239;SDS011;46102;39.012;-7.064;2024-02-21T07:27:10;25.83;;;13.00;;
60239;SDS011;46102;39.012;-7.064;2024-02-21T07:29:10;23.90;;;12.30;;
60239;SDS011;46102;39.012;-7.064;2024-02-21T07:31:11;18.80;;;10.73;;
60239;SDS011;46102;39.012;-7.064;2024-02-21T07:33:12;18.75;;;10.57;;
60239;SDS011;46102;39.012;-7.064;2024-02-21T07:35:13;17.52;;;9.32;;
60239;SDS011;46102;39.012;-7.064;2024-02-21T07:37:14;16.08;;;9.43;;
60239;SDS011;46102;39.012;-7.064;2024-02-21T07:39:14;16.20;;;8.20;;
60239;SDS011;46102;39.012;-7.064;2024-02-21T07:41:15;11.27;;;7.53;;
60239;SDS011;46102;39.012;-7.064;2024-02-21T07:43:16;11.50;;;8.35;;
60239;SDS011;46102;39.012;-7.064;2024-02-21T07:45:17;14.02;;;8.93;;
60239;SDS011;46102;39.012;-7.064;2024-02-21T07:47:18;15.38;;;9.65;;
60239;SDS011;46102;39.012;-7.064;2024-02-21T07:49:20;14.95;;;8.95;;
60239;SDS011;46102;39.012;-7.064;2024-02-21T07:51:20;16.20;;;8.40;;
60239;SDS011;46102;39.012;-7.064;2024-02-21T07:53:21;14.65;;;8.30;;
60239;SDS011;46102;39.012;-7.064;2024-02-21T07:55:22;12.45;;;7.82;;
60239;SDS011;46102;39.012;-7.064;2024-02-21T07:57:23;13.35;;;9.20;;
60239;SDS011;46102;39.012;-7.064;2024-02-21T07:59:24;14.57;;;8.55;;
60239;SDS011;46102;39.012;-7.064;2024-02-21T08:01:24;17.45;;;10.15;;
60239;SDS011;46102;39.012;-7.064;2024-02-21T08:03:25;10.65;;;7.28;;
60239;SDS011;46102;39.012;-7.064;2024-02-21T08:05:26;13.77;;;7.82;;
60239;SDS011;46102;39.012;-7.064;2024-02-21T08:07:27;10.55;;;5.47;;
60239;SDS011;46102;39.012;-7.064;2024-02-21T08:09:29;5.35;;;4.80;;
60239;SDS011;46102;39.012;-7.064;2024-02-21T08:11:30;8.00;;;5.65;;
60239;SDS011;46102;39.012;-7.064;2024-02-21T08:13:31;10.50;;;6.63;;
60239;SDS011;46102;39.012;-7.064;2024-02-21T08:15:32;7.43;;;5.07;;
60239;SDS011;46102;39.012;-7.064;2024-02-21T08:17:34;3.70;;;3.42;;
60239;SDS011;46102;39.012;-7.064;2024-02-21T08:19:34;5.28;;;4.43;;
60239;SDS011;46102;39.012;-7.064;2024-02-21T08:21:35;4.95;;;3.88;;
60239;SDS011;46102;39.012;-7.064;2024-02-21T08:23:36;4.28;;;3.63;;
60239;SDS011;46102;39.012;-7.064;2024-02-21T08:25:37;3.42;;;3.22;;
60239;SDS011;46102;39.012;-7.064;2024-02-21T08:27:37;3.63;;;3.33;;
60239;SDS011;46102;39.012;-7.064;2024-02-21T08:29:38;3.95;;;3.58;;
60239;SDS011;46102;39.012;-7.064;2024-02-21T08:31:39;8.05;;;3.65;;
60239;SDS011;46102;39.012;-7.064;2024-02-21T08:33:40;4.95;;;3.53;;
60239;SDS011;46102;39.012;-7.064;2024-02-21T08:35:40;4.00;;;3.55;;
60239;SDS011;46102;39.012;-7.064;2024-02-21T08:37:41;7.93;;;3.78;;
60239;SDS011;46102;39.012;-7.064;2024-02-21T08:39:43;4.03;;;3.28;;
60239;SDS011;46102;39.012;-7.064;2024-02-21T08:41:44;3.85;;;3.45;;
60239;SDS011;46102;39.012;-7.064;2024-02-21T08:43:45;3.97;;;3.65;;
60239;SDS011;46102;39.012;-7.064;2024-02-21T08:45:45;4.70;;;3.75;;
60239;SDS011;46102;39.012;-7.064;2024-02-21T08:47:46;4.72;;;4.28;;
60239;SDS011;46102;39.012;-7.064;2024-02-21T08:49:47;5.20;;;4.60;;
60239;SDS011;46102;39.012;-7.064;2024-02-21T08:51:48;4.93;;;3.83;;
60239;SDS011;46102;39.012;-7.064;2024-02-21T08:53:49;5.45;;;4.63;;
60239;SDS011;46102;39.012;-7.064;2024-02-21T08:55:50;5.72;;;4.20;;
60239;SDS011;46102;39.012;-7.064;2024-02-21T08:57:51;7.10;;;4.03;;
60239;SDS011;46102;39.012;-7.064;2024-02-21T08:59:51;5.63;;;4.18;;
60239;SDS011;46102;39.012;-7.064;2024-02-21T09:01:52;5.15;;;4.00;;
60239;SDS011;46102;39.012;-7.064;2024-02-21T09:03:53;4.65;;;3.95;;
60239;SDS011;46102;39.012;-7.064;2024-02-21T09:05:54;5.00;;;3.85;;
60239;SDS011;46102;39.012;-7.064;2024-02-21T09:07:54;8.82;;;6.88;;
60239;SDS011;46102;39.012;-7.064;2024-02-21T09:09:55;10.93;;;7.60;;
60239;SDS011;46102;39.012;-7.064;2024-02-21T09:11:56;10.10;;;5.00;;
60239;SDS011;46102;39.012;-7.064;2024-02-21T09:13:57;11.65;;;4.20;;
60239;SDS011;46102;39.012;-7.064;2024-02-21T09:15:58;4.25;;;3.85;;
60239;SDS011;46102;39.012;-7.064;2024-02-21T09:17:59;3.80;;;3.50;;
60239;SDS011;46102;39.012;-7.064;2024-02-21T09:19:59;5.28;;;4.00;;
60239;SDS011;46102;39.012;-7.064;2024-02-21T09:22:03;4.50;;;3.95;;
60239;SDS011;46102;39.012;-7.064;2024-02-21T09:24:05;4.35;;;3.90;;
60239;SDS011;46102;39.012;-7.064;2024-02-21T09:26:06;5.30;;;4.80;;
60239;SDS011;46102;39.012;-7.064;2024-02-21T09:28:06;3.75;;;3.38;;
60239;SDS011;46102;39.012;-7.064;2024-02-21T09:30:07;4.07;;;3.67;;
60239;SDS011;46102;39.012;-7.064;2024-02-21T09:32:08;3.97;;;3.67;;
60239;SDS011;46102;39.012;-7.064;2024-02-21T09:34:09;3.60;;;3.25;;
60239;SDS011;46102;39.012;-7.064;2024-02-21T09:36:11;5.15;;;3.65;;
60239;SDS011;46102;39.012;-7.064;2024-02-21T09:38:12;8.07;;;3.95;;
60239;SDS011;46102;39.012;-7.064;2024-02-21T09:40:12;4.93;;;2.90;;
60239;SDS011;46102;39.012;-7.064;2024-02-21T09:42:16;5.68;;;4.05;;
60239;SDS011;46102;39.012;-7.064;2024-02-21T09:44:21;3.67;;;3.22;;
60239;SDS011;46102;39.012;-7.064;2024-02-21T09:48:50;5.65;;;3.92;;
60239;SDS011;46102;39.012;-7.064;2024-02-21T09:51:04;4.97;;;4.18;;
60239;SDS011;46102;39.012;-7.064;2024-02-21T09:53:07;6.77;;;4.57;;
60239;SDS011;46102;39.012;-7.064;2024-02-21T09:55:09;21.73;;;6.53;;
60239;SDS011;46102;39.012;-7.064;2024-02-21T09:57:12;6.85;;;5.03;;
60239;SDS011;46102;39.012;-7.064;2024-02-21T09:59:14;6.85;;;4.55;;
60239;SDS011;46102;39.012;-7.064;2024-02-21T10:01:16;11.15;;;5.20;;
60239;SDS011;46102;39.012;-7.064;2024-02-21T10:03:17;17.10;;;8.35;;
60239;SDS011;46102;39.012;-7.064;2024-02-21T10:05:17;9.25;;;6.15;;
60239;SDS011;46102;39.012;-7.064;2024-02-21T10:07:18;13.60;;;7.22;;
60239;SDS011;46102;39.012;-7.064;2024-02-21T10:09:23;15.77;;;7.60;;
60239;SDS011;46102;39.012;-7.064;2024-02-21T10:11:27;12.80;;;6.60;;
60239;SDS011;46102;39.012;-7.064;2024-02-21T10:13:29;11.23;;;5.60;;
60239;SDS011;46102;39.012;-7.064;2024-02-21T10:15:30;7.80;;;4.60;;
60239;SDS011;46102;39.012;-7.064;2024-02-21T10:17:32;9.27;;;5.30;;
60239;SDS011;46102;39.012;-7.064;2024-02-21T10:19:33;5.10;;;4.10;;
60239;SDS011;46102;39.012;-7.064;2024-02-21T10:21:33;6.53;;;3.72;;
60239;SDS011;46102;39.012;-7.064;2024-02-21T10:23:41;3.92;;;3.63;;
60239;SDS011;46102;39.012;-7.064;2024-02-21T10:25:43;4.22;;;3.70;;
60239;SDS011;46102;39.012;-7.064;2024-02-21T10:27:46;3.78;;;3.47;;
60239;SDS011;46102;39.012;-7.064;2024-02-21T10:29:49;3.53;;;3.22;;
60239;SDS011;46102;39.012;-7.064;2024-02-21T10:31:51;6.57;;;3.38;;
60239;SDS011;46102;39.012;-7.064;2024-02-21T10:33:59;4.15;;;3.75;;
60239;SDS011;46102;39.012;-7.064;2024-02-21T10:36:08;4.45;;;4.05;;
60239;SDS011;46102;39.012;-7.064;2024-02-21T10:38:09;6.18;;;5.57;;
60239;SDS011;46102;39.012;-7.064;2024-02-21T10:40:10;6.35;;;4.60;;
60239;SDS011;46102;39.012;-7.064;2024-02-21T10:42:12;5.97;;;5.20;;
60239;SDS011;46102;39.012;-7.064;2024-02-21T10:44:14;7.35;;;4.90;;
60239;SDS011;46102;39.012;-7.064;2024-02-21T10:46:18;5.88;;;5.20;;
60239;SDS011;46102;39.012;-7.064;2024-02-21T10:48:22;8.05;;;4.85;;
60239;SDS011;46102;39.012;-7.064;2024-02-21T10:50:29;5.13;;;4.63;;
60239;SDS011;46102;39.012;-7.064;2024-02-21T10:54:50;6.47;;;4.63;;
60239;SDS011;46102;39.012;-7.064;2024-02-21T10:56:56;7.82;;;4.80;;
60239;SDS011;46102;39.012;-7.064;2024-02-21T10:58:58;5.32;;;3.85;;
60239;SDS011;46102;39.012;-7.064;2024-02-21T11:01:02;4.68;;;3.85;;
60239;SDS011;46102;39.012;-7.064;2024-02-21T11:03:04;4.50;;;3.72;;
60239;SDS011;46102;39.012;-7.064;2024-02-21T11:05:06;4.47;;;3.53;;
60239;SDS011;46102;39.012;-7.064;2024-02-21T11:07:07;7.03;;;3.53;;
60239;SDS011;46102;39.012;-7.064;2024-02-21T11:09:10;4.43;;;3.95;;
60239;SDS011;46102;39.012;-7.064;2024-02-21T11:11:14;5.47;;;3.90;;
60239;SDS011;46102;39.012;-7.064;2024-02-21T11:13:17;5.20;;;3.63;;
60239;SDS011;46102;39.012;-7.064;2024-02-21T11:15:18;3.58;;;3.28;;
60239;SDS011;46102;39.012;-7.064;2024-02-21T11:17:19;3.58;;;3.28;;
60239;SDS011;46102;39.012;-7.064;2024-02-21T11:19:27;5.65;;;2.97;;
60239;SDS011;46102;39.012;-7.064;2024-02-21T11:21:35;4.63;;;3.25;;
60239;SDS011;46102;39.012;-7.064;2024-02-21T11:23:41;3.30;;;3.05;;
60239;SDS011;46102;39.012;-7.064;2024-02-21T11:25:41;3.05;;;2.70;;
60239;SDS011;46102;39.012;-7.064;2024-02-21T11:27:45;3.17;;;2.88;;
60239;SDS011;46102;39.012;-7.064;2024-02-21T11:31:49;3.30;;;2.50;;
60239;SDS011;46102;39.012;-7.064;2024-02-21T11:33:50;3.50;;;2.42;;
60239;SDS011;46102;39.012;-7.064;2024-02-21T11:35:51;5.35;;;3.20;;
60239;SDS011;46102;39.012;-7.064;2024-02-21T11:37:53;4.22;;;3.13;;
60239;SDS011;46102;39.012;-7.064;2024-02-21T11:39:57;3.75;;;2.80;;
60239;SDS011;46102;39.012;-7.064;2024-02-21T11:44:02;2.13;;;2.03;;
60239;SDS011;46102;39.012;-7.064;2024-02-21T11:46:05;3.28;;;2.70;;
60239;SDS011;46102;39.012;-7.064;2024-02-21T11:48:07;3.40;;;3.10;;
60239;SDS011;46102;39.012;-7.064;2024-02-21T11:50:11;2.13;;;1.92;;
60239;SDS011;46102;39.012;-7.064;2024-02-21T11:52:12;4.32;;;2.75;;
60239;SDS011;46102;39.012;-7.064;2024-02-21T11:54:15;3.03;;;2.80;;
60239;SDS011;46102;39.012;-7.064;2024-02-21T11:56:17;3.17;;;2.90;;
60239;SDS011;46102;39.012;-7.064;2024-02-21T11:58:19;2.67;;;2.47;;
60239;SDS011;46102;39.012;-7.064;2024-02-21T12:00:20;2.88;;;2.60;;
60239;SDS011;46102;39.012;-7.064;2024-02-21T12:02:21;2.90;;;2.22;;
60239;SDS011;46102;39.012;-7.064;2024-02-21T12:04:22;3.42;;;2.83;;
60239;SDS011;46102;39.012;-7.064;2024-02-21T12:06:25;4.43;;;2.38;;